sensor_id;sensor_type;location;lat;lon;timestamp;pressure;altitude;pressure_sealevel;temperature;humidity
71384;BME280;67558;52.166;5.004;2023-03-23T00:01:26;100221.81;;;13.05;72.51
71384;BME280;67558;52.166;5.004;2023-03-23T00:03:57;100217.56;;;13.04;72.35
71384;BME280;67558;52.166;5.004;2023-03-23T00:06:25;100228.19;;;13.09;72.50
71384;BME280;67558;52.166;5.004;2023-03-23T00:08:54;100219.63;;;13.07;72.22
71384;BME280;67558;52.166;5.004;2023-03-23T00:11:27;100220.63;;;13.11;72.22
71384;BME280;67558;52.166;5.004;2023-03-23T00:13:58;100224.16;;;13.12;71.97
71384;BME280;67558;52.166;5.004;2023-03-23T00:16:29;100215.28;;;13.11;72.04
71384;BME280;67558;52.166;5.004;2023-03-23T00:18:59;100218.78;;;13.12;71.95
71384;BME280;67558;52.166;5.004;2023-03-23T00:21:27;100205.94;;;13.09;71.84
71384;BME280;67558;52.166;5.004;2023-03-23T00:24:07;100207.22;;;13.11;71.90
71384;BME280;67558;52.166;5.004;2023-03-23T00:26:35;100201.16;;;13.06;71.65
71384;BME280;67558;52.166;5.004;2023-03-23T00:29:03;100214.47;;;13.11;71.79
71384;BME280;67558;52.166;5.004;2023-03-23T00:31:30;100203.75;;;13.11;71.70
71384;BME280;67558;52.166;5.004;2023-03-23T00:33:58;100193.50;;;13.13;71.59
71384;BME280;67558;52.166;5.004;2023-03-23T00:36:26;100193.22;;;13.15;71.55
71384;BME280;67558;52.166;5.004;2023-03-23T00:38:53;100190.03;;;13.13;71.54
71384;BME280;67558;52.166;5.004;2023-03-23T00:41:19;100191.59;;;13.14;71.57
71384;BME280;67558;52.166;5.004;2023-03-23T00:43:46;100191.59;;;13.14;71.57
71384;BME280;67558;52.166;5.004;2023-03-23T00:46:15;100190.81;;;13.13;71.34
71384;BME280;67558;52.166;5.004;2023-03-23T00:48:41;100183.88;;;13.12;71.51
71384;BME280;67558;52.166;5.004;2023-03-23T00:51:11;100186.75;;;13.16;71.49
71384;BME280;67558;52.166;5.004;2023-03-23T00:53:38;100168.72;;;13.16;71.09
71384;BME280;67558;52.166;5.004;2023-03-23T00:56:05;100169.53;;;13.17;71.21
71384;BME280;67558;52.166;5.004;2023-03-23T00:58:31;100164.75;;;13.14;71.02
71384;BME280;67558;52.166;5.004;2023-03-23T01:00:57;100167.66;;;13.17;71.21
71384;BME280;67558;52.166;5.004;2023-03-23T01:03:23;100167.34;;;13.19;70.95
71384;BME280;67558;52.166;5.004;2023-03-23T01:05:51;100156.91;;;13.17;71.02
71384;BME280;67558;52.166;5.004;2023-03-23T01:08:18;100174.50;;;13.23;70.71
71384;BME280;67558;52.166;5.004;2023-03-23T01:10:45;100168.94;;;13.20;70.68
71384;BME280;67558;52.166;5.004;2023-03-23T01:13:11;100168.72;;;13.16;70.59
71384;BME280;67558;52.166;5.004;2023-03-23T01:15:38;100174.09;;;13.16;70.66
71384;BME280;67558;52.166;5.004;2023-03-23T01:18:03;100180.19;;;13.22;70.64
71384;BME280;67558;52.166;5.004;2023-03-23T01:20:29;100155.22;;;13.21;70.66
71384;BME280;67558;52.166;5.004;2023-03-23T01:22:59;100149.84;;;13.21;70.44
71384;BME280;67558;52.166;5.004;2023-03-23T01:25:29;100136.13;;;13.23;70.52
71384;BME280;67558;52.166;5.004;2023-03-23T01:27:56;100148.44;;;13.24;70.48
71384;BME280;67558;52.166;5.004;2023-03-23T01:30:22;100132.63;;;13.22;70.17
71384;BME280;67558;52.166;5.004;2023-03-23T01:32:47;100130.56;;;13.19;70.37
71384;BME280;67558;52.166;5.004;2023-03-23T01:35:13;100134.13;;;13.15;70.14
71384;BME280;67558;52.166;5.004;2023-03-23T01:37:39;100137.31;;;13.17;70.30
71384;BME280;67558;52.166;5.004;2023-03-23T01:40:05;100132.75;;;13.17;70.33
71384;BME280;67558;52.166;5.004;2023-03-23T01:42:34;100130.84;;;13.18;70.18
71384;BME280;67558;52.166;5.004;2023-03-23T01:47:45;100137.31;;;13.17;70.16
71384;BME280;67558;52.166;5.004;2023-03-23T01:50:11;100133.81;;;13.16;70.12
71384;BME280;67558;52.166;5.004;2023-03-23T01:52:36;100134.31;;;13.18;69.92
71384;BME280;67558;52.166;5.004;2023-03-23T01:55:03;100131.63;;;13.18;69.97
71384;BME280;67558;52.166;5.004;2023-03-23T01:57:29;100124.19;;;13.15;69.85
71384;BME280;67558;52.166;5.004;2023-03-23T01:59:55;100124.97;;;13.16;70.00
71384;BME280;67558;52.166;5.004;2023-03-23T02:02:24;100124.97;;;13.16;69.83
71384;BME280;67558;52.166;5.004;2023-03-23T02:04:50;100118.59;;;13.11;69.84
71384;BME280;67558;52.166;5.004;2023-03-23T02:07:19;100114.84;;;13.13;69.89
71384;BME280;67558;52.166;5.004;2023-03-23T02:09:45;100118.03;;;13.15;69.79
71384;BME280;67558;52.166;5.004;2023-03-23T02:12:10;100098.53;;;13.09;69.69
71384;BME280;67558;52.166;5.004;2023-03-23T02:14:36;100120.88;;;13.18;69.58
71384;BME280;67558;52.166;5.004;2023-03-23T02:17:10;100127.16;;;13.14;69.68
71384;BME280;67558;52.166;5.004;2023-03-23T02:22:48;100128.16;;;13.18;69.56
71384;BME280;67558;52.166;5.004;2023-03-23T02:39:00;100109.66;;;13.16;69.51
71384;BME280;67558;52.166;5.004;2023-03-23T02:41:38;100123.56;;;13.18;69.57
71384;BME280;67558;52.166;5.004;2023-03-23T02:44:06;100113.66;;;13.19;69.61
71384;BME280;67558;52.166;5.004;2023-03-23T02:46:34;100118.41;;;13.22;69.44
71384;BME280;67558;52.166;5.004;2023-03-23T02:49:01;100122.69;;;13.23;69.56
71384;BME280;67558;52.166;5.004;2023-03-23T02:51:28;100118.91;;;13.24;69.39
71384;BME280;67558;52.166;5.004;2023-03-23T02:53:55;100107.06;;;13.25;69.39
71384;BME280;67558;52.166;5.004;2023-03-23T02:56:23;100110.34;;;13.22;69.47
71384;BME280;67558;52.166;5.004;2023-03-23T02:58:50;100109.75;;;13.25;69.21
71384;BME280;67558;52.166;5.004;2023-03-23T03:04:11;100109.28;;;13.23;69.09
71384;BME280;67558;52.166;5.004;2023-03-23T03:09:42;100105.47;;;13.24;68.97
71384;BME280;67558;52.166;5.004;2023-03-23T03:17:35;100101.69;;;13.25;68.91
71384;BME280;67558;52.166;5.004;2023-03-23T03:20:06;100094.75;;;13.24;68.77
71384;BME280;67558;52.166;5.004;2023-03-23T03:22:37;100064.22;;;13.06;68.90
71384;BME280;67558;52.166;5.004;2023-03-23T03:25:04;100093.94;;;13.23;68.92
71384;BME280;67558;52.166;5.004;2023-03-23T03:27:31;100083.28;;;13.18;68.82
71384;BME280;67558;52.166;5.004;2023-03-23T03:29:59;100094.75;;;13.24;68.84
71384;BME280;67558;52.166;5.004;2023-03-23T03:32:34;100080.94;;;13.17;68.67
71384;BME280;67558;52.166;5.004;2023-03-23T03:35:04;100100.91;;;13.24;68.71
71384;BME280;67558;52.166;5.004;2023-03-23T03:37:38;100082.72;;;13.21;68.61
71384;BME280;67558;52.166;5.004;2023-03-23T03:40:08;100084.28;;;13.22;68.83
71384;BME280;67558;52.166;5.004;2023-03-23T03:42:40;100092.06;;;13.24;68.66
71384;BME280;67558;52.166;5.004;2023-03-23T03:45:08;100092.53;;;13.26;68.84
71384;BME280;67558;52.166;5.004;2023-03-23T03:47:34;100098.16;;;13.29;68.75
71384;BME280;67558;52.166;5.004;2023-03-23T03:50:00;100085.50;;;13.30;68.98
71384;BME280;67558;52.166;5.004;2023-03-23T03:52:25;100098.16;;;13.29;69.32
71384;BME280;67558;52.166;5.004;2023-03-23T03:54:52;100079.22;;;13.21;69.16
71384;BME280;67558;52.166;5.004;2023-03-23T03:57:18;100092.06;;;13.24;69.49
71384;BME280;67558;52.166;5.004;2023-03-23T03:59:43;100093.75;;;13.20;69.85
71384;BME280;67558;52.166;5.004;2023-03-23T04:02:09;100104.47;;;13.20;69.79
71384;BME280;67558;52.166;5.004;2023-03-23T04:04:38;100087.88;;;13.18;69.82
71384;BME280;67558;52.166;5.004;2023-03-23T04:07:04;100090.56;;;13.18;70.09
71384;BME280;67558;52.166;5.004;2023-03-23T04:09:30;100104.00;;;13.18;69.87
71384;BME280;67558;52.166;5.004;2023-03-23T04:11:56;100101.31;;;13.18;69.69
71384;BME280;67558;52.166;5.004;2023-03-23T04:14:22;100091.16;;;13.15;69.71
71384;BME280;67558;52.166;5.004;2023-03-23T04:16:47;100083.13;;;13.15;69.66
71384;BME280;67558;52.166;5.004;2023-03-23T04:19:12;100095.94;;;13.18;69.56
71384;BME280;67558;52.166;5.004;2023-03-23T04:21:38;100097.63;;;13.14;69.61
71384;BME280;67558;52.166;5.004;2023-03-23T04:24:03;100097.44;;;13.10;69.67
71384;BME280;67558;52.166;5.004;2023-03-23T04:26:29;100116.13;;;13.15;69.67
71384;BME280;67558;52.166;5.004;2023-03-23T04:28:55;100099.03;;;13.11;69.54
71384;BME280;67558;52.166;5.004;2023-03-23T04:31:22;100107.28;;;13.15;69.17
71384;BME280;67558;52.166;5.004;2023-03-23T04:33:50;100111.25;;;13.17;69.13
71384;BME280;67558;52.166;5.004;2023-03-23T04:36:19;100109.84;;;13.20;68.95
71384;BME280;67558;52.166;5.004;2023-03-23T04:38:45;100124.41;;;13.19;68.80
71384;BME280;67558;52.166;5.004;2023-03-23T04:41:11;100119.03;;;13.19;68.66
71384;BME280;67558;52.166;5.004;2023-03-23T04:43:36;100118.53;;;13.17;68.80
71384;BME280;67558;52.166;5.004;2023-03-23T04:46:07;100130.34;;;13.16;68.78
71384;BME280;67558;52.166;5.004;2023-03-23T04:48:34;100144.28;;;13.18;68.55
71384;BME280;67558;52.166;5.004;2023-03-23T04:51:03;100134.22;;;13.09;68.39
71384;BME280;67558;52.166;5.004;2023-03-23T04:53:30;100139.78;;;13.13;68.53
71384;BME280;67558;52.166;5.004;2023-03-23T04:55:55;100145.16;;;13.13;69.04
71384;BME280;67558;52.166;5.004;2023-03-23T04:58:21;100152.13;;;13.14;69.09
71384;BME280;67558;52.166;5.004;2023-03-23T05:00:48;100158.09;;;13.11;69.40
71384;BME280;67558;52.166;5.004;2023-03-23T05:03:15;100147.34;;;13.11;69.36
71384;BME280;67558;52.166;5.004;2023-03-23T05:05:41;100145.78;;;13.10;69.40
71384;BME280;67558;52.166;5.004;2023-03-23T05:08:07;100148.94;;;12.98;69.81
71384;BME280;67558;52.166;5.004;2023-03-23T05:10:32;100160.19;;;13.00;69.84
71384;BME280;67558;52.166;5.004;2023-03-23T05:12:58;100166.44;;;12.96;70.03
71384;BME280;67558;52.166;5.004;2023-03-23T05:15:23;100166.16;;;12.97;69.96
71384;BME280;67558;52.166;5.004;2023-03-23T05:17:51;100161.66;;;12.93;70.33
71384;BME280;67558;52.166;5.004;2023-03-23T05:20:17;100153.81;;;12.82;70.71
71384;BME280;67558;52.166;5.004;2023-03-23T05:22:46;100180.03;;;12.85;70.95
71384;BME280;67558;52.166;5.004;2023-03-23T05:25:16;100177.63;;;12.84;71.06
71384;BME280;67558;52.166;5.004;2023-03-23T05:27:44;100180.63;;;12.82;70.99
71384;BME280;67558;52.166;5.004;2023-03-23T05:30:14;100175.06;;;12.79;71.57
71384;BME280;67558;52.166;5.004;2023-03-23T05:32:43;100181.81;;;12.76;71.49
71384;BME280;67558;52.166;5.004;2023-03-23T05:35:10;100187.19;;;12.76;71.73
71384;BME280;67558;52.166;5.004;2023-03-23T05:37:37;100181.09;;;12.70;71.80
71384;BME280;67558;52.166;5.004;2023-03-23T05:40:02;100185.06;;;12.73;71.71
71384;BME280;67558;52.166;5.004;2023-03-23T05:42:33;100185.16;;;12.68;72.02
71384;BME280;67558;52.166;5.004;2023-03-23T05:45:00;100193.00;;;12.64;72.13
71384;BME280;67558;52.166;5.004;2023-03-23T05:47:26;100197.28;;;12.65;72.39
71384;BME280;67558;52.166;5.004;2023-03-23T05:49:52;100209.09;;;12.64;72.22
71384;BME280;67558;52.166;5.004;2023-03-23T05:52:18;100203.66;;;12.69;72.06
71384;BME280;67558;52.166;5.004;2023-03-23T05:54:44;100199.69;;;12.67;72.10
71384;BME280;67558;52.166;5.004;2023-03-23T05:57:10;100193.00;;;12.64;71.93
71384;BME280;67558;52.166;5.004;2023-03-23T05:59:35;100193.00;;;12.64;72.21
71384;BME280;67558;52.166;5.004;2023-03-23T06:02:01;100197.66;;;12.59;72.02
71384;BME280;67558;52.166;5.004;2023-03-23T06:04:27;100209.59;;;12.66;72.45
71384;BME280;67558;52.166;5.004;2023-03-23T06:06:52;100210.69;;;12.65;72.48
71384;BME280;67558;52.166;5.004;2023-03-23T06:09:18;100210.69;;;12.65;72.33
71384;BME280;67558;52.166;5.004;2023-03-23T06:11:44;100212.38;;;12.61;72.54
71384;BME280;67558;52.166;5.004;2023-03-23T06:14:10;100218.81;;;12.60;72.54
71384;BME280;67558;52.166;5.004;2023-03-23T06:16:35;100231.25;;;12.56;73.02
71384;BME280;67558;52.166;5.004;2023-03-23T06:19:01;100236.81;;;12.60;73.06
71384;BME280;67558;52.166;5.004;2023-03-23T06:21:30;100227.03;;;12.50;73.29
71384;BME280;67558;52.166;5.004;2023-03-23T06:23:57;100230.66;;;12.59;73.22
71384;BME280;67558;52.166;5.004;2023-03-23T06:26:27;100224.56;;;12.54;73.34
71384;BME280;67558;52.166;5.004;2023-03-23T06:29:04;100240.97;;;12.52;73.60
71384;BME280;67558;52.166;5.004;2023-03-23T06:31:45;100246.53;;;12.56;74.01
71384;BME280;67558;52.166;5.004;2023-03-23T06:34:12;100245.47;;;12.57;73.52
71384;BME280;67558;52.166;5.004;2023-03-23T06:36:38;100246.25;;;12.57;73.49
71384;BME280;67558;52.166;5.004;2023-03-23T06:39:04;100254.81;;;12.59;73.62
71384;BME280;67558;52.166;5.004;2023-03-23T06:41:34;100260.44;;;12.58;73.57
71384;BME280;67558;52.166;5.004;2023-03-23T06:44:01;100262.94;;;12.54;73.47
71384;BME280;67558;52.166;5.004;2023-03-23T06:46:27;100260.25;;;12.54;74.06
71384;BME280;67558;52.166;5.004;2023-03-23T06:48:54;100262.06;;;12.59;73.86
71384;BME280;67558;52.166;5.004;2023-03-23T06:51:20;100253.41;;;12.62;73.61
71384;BME280;67558;52.166;5.004;2023-03-23T06:53:46;100260.16;;;12.59;73.79
71384;BME280;67558;52.166;5.004;2023-03-23T06:56:13;100269.22;;;12.63;73.73
71384;BME280;67558;52.166;5.004;2023-03-23T06:58:39;100257.41;;;12.64;73.57
71384;BME280;67558;52.166;5.004;2023-03-23T07:01:05;100270.75;;;12.69;73.66
71384;BME280;67558;52.166;5.004;2023-03-23T07:03:31;100261.03;;;12.74;73.47
71384;BME280;67558;52.166;5.004;2023-03-23T07:05:58;100266.31;;;12.79;73.23
71384;BME280;67558;52.166;5.004;2023-03-23T07:08:27;100264.91;;;12.81;73.50
71384;BME280;67558;52.166;5.004;2023-03-23T07:10:54;100277.44;;;12.86;73.11
71384;BME280;67558;52.166;5.004;2023-03-23T07:13:20;100266.53;;;12.82;73.19
71384;BME280;67558;52.166;5.004;2023-03-23T07:15:46;100254.47;;;12.80;73.10
71384;BME280;67558;52.166;5.004;2023-03-23T07:18:13;100265.34;;;12.88;73.01
71384;BME280;67558;52.166;5.004;2023-03-23T07:20:39;100266.56;;;12.96;73.04
71384;BME280;67558;52.166;5.004;2023-03-23T07:23:06;100268.84;;;13.03;73.10
71384;BME280;67558;52.166;5.004;2023-03-23T07:25:35;100273.34;;;13.07;72.85
71384;BME280;67558;52.166;5.004;2023-03-23T07:28:02;100268.78;;;13.08;72.65
71384;BME280;67558;52.166;5.004;2023-03-23T07:30:30;100289.94;;;13.09;72.50
71384;BME280;67558;52.166;5.004;2023-03-23T07:32:56;100276.53;;;13.09;72.50
71384;BME280;67558;52.166;5.004;2023-03-23T07:35:23;100286.19;;;13.10;72.49
71384;BME280;67558;52.166;5.004;2023-03-23T07:37:49;100290.06;;;13.04;72.14
71384;BME280;67558;52.166;5.004;2023-03-23T07:40:17;100300.78;;;13.04;72.32
71384;BME280;67558;52.166;5.004;2023-03-23T07:42:50;100277.69;;;13.03;72.23
71384;BME280;67558;52.166;5.004;2023-03-23T07:45:17;100298.63;;;13.06;72.27
71384;BME280;67558;52.166;5.004;2023-03-23T07:47:43;100294.53;;;13.09;72.29
71384;BME280;67558;52.166;5.004;2023-03-23T07:50:09;100296.25;;;13.19;72.20
71384;BME280;67558;52.166;5.004;2023-03-23T07:52:36;100275.56;;;13.19;72.06
71384;BME280;67558;52.166;5.004;2023-03-23T07:55:03;100288.59;;;13.26;71.87
71384;BME280;67558;52.166;5.004;2023-03-23T07:57:30;100279.25;;;13.23;71.89
71384;BME280;67558;52.166;5.004;2023-03-23T07:59:56;100291.22;;;13.31;72.10
71384;BME280;67558;52.166;5.004;2023-03-23T08:02:24;100296.41;;;13.41;71.92
71384;BME280;67558;52.166;5.004;2023-03-23T08:04:50;100302.28;;;13.43;71.88
71384;BME280;67558;52.166;5.004;2023-03-23T08:07:17;100303.50;;;13.51;71.70
71384;BME280;67558;52.166;5.004;2023-03-23T08:09:46;100303.69;;;13.55;71.83
71384;BME280;67558;52.166;5.004;2023-03-23T08:12:13;100308.78;;;13.56;71.35
71384;BME280;67558;52.166;5.004;2023-03-23T08:14:39;100314.94;;;13.57;71.31
71384;BME280;67558;52.166;5.004;2023-03-23T08:17:07;100308.38;;;13.63;71.17
71384;BME280;67558;52.166;5.004;2023-03-23T08:19:36;100302.91;;;13.68;70.97
71384;BME280;67558;52.166;5.004;2023-03-23T08:22:06;100306.91;;;13.70;70.48
71384;BME280;67558;52.166;5.004;2023-03-23T08:24:32;100311.47;;;13.70;70.54
71384;BME280;67558;52.166;5.004;2023-03-23T08:26:59;100308.69;;;13.75;70.54
71384;BME280;67558;52.166;5.004;2023-03-23T08:29:25;100312.88;;;13.81;70.49
71384;BME280;67558;52.166;5.004;2023-03-23T08:31:52;100310.47;;;13.93;70.60
71384;BME280;67558;52.166;5.004;2023-03-23T08:34:20;100309.78;;;14.02;70.08
71384;BME280;67558;52.166;5.004;2023-03-23T08:36:46;100300.84;;;13.92;69.93
71384;BME280;67558;52.166;5.004;2023-03-23T08:39:13;100318.63;;;14.02;69.50
71384;BME280;67558;52.166;5.004;2023-03-23T08:41:44;100323.44;;;14.05;69.61
71384;BME280;67558;52.166;5.004;2023-03-23T08:44:10;100323.03;;;14.12;69.85
71384;BME280;67558;52.166;5.004;2023-03-23T08:46:38;100317.63;;;14.26;69.41
71384;BME280;67558;52.166;5.004;2023-03-23T08:49:05;100328.88;;;14.42;69.24
71384;BME280;67558;52.166;5.004;2023-03-23T08:51:32;100324.47;;;14.46;68.85
71384;BME280;67558;52.166;5.004;2023-03-23T08:53:57;100331.75;;;14.59;67.76
71384;BME280;67558;52.166;5.004;2023-03-23T08:56:24;100334.09;;;14.74;68.00
71384;BME280;67558;52.166;5.004;2023-03-23T08:58:49;100342.22;;;14.83;67.97
71384;BME280;67558;52.166;5.004;2023-03-23T09:01:15;100336.13;;;14.91;67.82
71384;BME280;67558;52.166;5.004;2023-03-23T09:03:40;100332.38;;;15.01;67.65
71384;BME280;67558;52.166;5.004;2023-03-23T09:06:07;100323.06;;;15.07;67.11
71384;BME280;67558;52.166;5.004;2023-03-23T09:08:34;100336.03;;;15.05;65.92
71384;BME280;67558;52.166;5.004;2023-03-23T09:11:07;100339.41;;;15.11;65.23
71384;BME280;67558;52.166;5.004;2023-03-23T09:13:35;100338.84;;;15.23;65.14
71384;BME280;67558;52.166;5.004;2023-03-23T09:16:02;100332.41;;;15.32;65.35
71384;BME280;67558;52.166;5.004;2023-03-23T09:18:28;100328.19;;;15.40;64.68
71384;BME280;67558;52.166;5.004;2023-03-23T09:20:54;100334.53;;;15.44;64.78
71384;BME280;67558;52.166;5.004;2023-03-23T09:23:20;100334.72;;;15.48;64.07
71384;BME280;67558;52.166;5.004;2023-03-23T09:25:47;100332.81;;;15.48;64.08
71384;BME280;67558;52.166;5.004;2023-03-23T09:28:13;100340.78;;;15.53;63.49
71384;BME280;67558;52.166;5.004;2023-03-23T09:30:39;100340.63;;;15.59;63.71
71384;BME280;67558;52.166;5.004;2023-03-23T09:33:07;100346.53;;;15.61;63.14
71384;BME280;67558;52.166;5.004;2023-03-23T09:35:33;100340.63;;;15.59;63.24
71384;BME280;67558;52.166;5.004;2023-03-23T09:38:02;100348.16;;;15.70;63.11
71384;BME280;67558;52.166;5.004;2023-03-23T09:40:46;100328.28;;;15.57;62.34
71384;BME280;67558;52.166;5.004;2023-03-23T09:48:57;100355.94;;;15.72;61.35
71384;BME280;67558;52.166;5.004;2023-03-23T09:51:48;100364.22;;;15.75;60.25
71384;BME280;67558;52.166;5.004;2023-03-23T09:56:55;100379.00;;;15.87;61.04
71384;BME280;67558;52.166;5.004;2023-03-23T09:59:31;100379.69;;;15.92;60.61
71384;BME280;67558;52.166;5.004;2023-03-23T10:04:56;100382.72;;;16.00;59.56
71384;BME280;67558;52.166;5.004;2023-03-23T10:07:26;100373.38;;;16.06;60.41
71384;BME280;67558;52.166;5.004;2023-03-23T10:09:56;100378.78;;;16.06;59.37
71384;BME280;67558;52.166;5.004;2023-03-23T10:12:29;100379.22;;;15.99;59.01
71384;BME280;67558;52.166;5.004;2023-03-23T10:15:10;100393.50;;;16.00;59.31
71384;BME280;67558;52.166;5.004;2023-03-23T10:18:18;100393.09;;;16.15;59.31
71384;BME280;67558;52.166;5.004;2023-03-23T10:21:01;100392.97;;;16.20;57.81
71384;BME280;67558;52.166;5.004;2023-03-23T10:23:49;100397.09;;;16.26;58.06
71384;BME280;67558;52.166;5.004;2023-03-23T10:28:56;100392.03;;;16.25;57.56
71384;BME280;67558;52.166;5.004;2023-03-23T10:31:31;100393.78;;;16.29;57.60
71384;BME280;67558;52.166;5.004;2023-03-23T10:34:03;100398.41;;;16.37;57.79
71384;BME280;67558;52.166;5.004;2023-03-23T10:36:55;100391.28;;;16.42;56.95
71384;BME280;67558;52.166;5.004;2023-03-23T10:39:23;100377.63;;;16.47;57.70
71384;BME280;67558;52.166;5.004;2023-03-23T10:41:51;100389.22;;;16.56;57.35
71384;BME280;67558;52.166;5.004;2023-03-23T10:44:20;100387.63;;;16.55;57.22
71384;BME280;67558;52.166;5.004;2023-03-23T10:47:05;100394.78;;;16.59;57.86
71384;BME280;67558;52.166;5.004;2023-03-23T10:49:42;100380.19;;;16.61;57.16
71384;BME280;67558;52.166;5.004;2023-03-23T10:52:38;100395.28;;;16.70;56.32
71384;BME280;67558;52.166;5.004;2023-03-23T10:55:10;100394.00;;;16.68;56.11
71384;BME280;67558;52.166;5.004;2023-03-23T10:57:38;100396.41;;;16.69;56.23
71384;BME280;67558;52.166;5.004;2023-03-23T11:02:56;100413.09;;;16.71;54.99
71384;BME280;67558;52.166;5.004;2023-03-23T11:05:26;100412.91;;;16.68;54.42
71384;BME280;67558;52.166;5.004;2023-03-23T11:07:56;100401.47;;;16.62;54.79
71384;BME280;67558;52.166;5.004;2023-03-23T11:10:34;100405.28;;;16.61;54.64
71384;BME280;67558;52.166;5.004;2023-03-23T11:13:00;100396.53;;;16.73;54.76
71384;BME280;67558;52.166;5.004;2023-03-23T11:15:32;100404.06;;;16.85;53.19
71384;BME280;67558;52.166;5.004;2023-03-23T11:18:04;100401.69;;;16.92;53.47
71384;BME280;67558;52.166;5.004;2023-03-23T11:20:35;100385.16;;;17.02;53.37
71384;BME280;67558;52.166;5.004;2023-03-23T11:26:09;100399.16;;;17.04;53.27
71384;BME280;67558;52.166;5.004;2023-03-23T11:28:38;100394.53;;;17.05;52.75
71384;BME280;67558;52.166;5.004;2023-03-23T11:31:07;100397.41;;;17.08;52.35
71384;BME280;67558;52.166;5.004;2023-03-23T11:33:38;100399.63;;;17.15;52.52
71384;BME280;67558;52.166;5.004;2023-03-23T11:36:06;100398.34;;;17.21;52.58
71384;BME280;67558;52.166;5.004;2023-03-23T11:38:34;100399.28;;;17.25;52.12
71384;BME280;67558;52.166;5.004;2023-03-23T11:41:01;100405.31;;;17.22;51.80
71384;BME280;67558;52.166;5.004;2023-03-23T11:43:27;100397.69;;;17.15;51.13
71384;BME280;67558;52.166;5.004;2023-03-23T11:46:02;100397.06;;;17.10;50.98
71384;BME280;67558;52.166;5.004;2023-03-23T11:48:54;100392.78;;;17.17;51.39
71384;BME280;67558;52.166;5.004;2023-03-23T11:54:32;100402.63;;;17.13;51.23
71384;BME280;67558;52.166;5.004;2023-03-23T11:56:58;100386.41;;;17.05;51.82
71384;BME280;67558;52.166;5.004;2023-03-23T11:59:30;100400.22;;;17.12;52.49
71384;BME280;67558;52.166;5.004;2023-03-23T12:02:24;100404.69;;;17.08;51.76
71384;BME280;67558;52.166;5.004;2023-03-23T12:08:03;100413.91;;;17.07;53.14
71384;BME280;67558;52.166;5.004;2023-03-23T12:10:50;100412.97;;;17.11;53.20
71384;BME280;67558;52.166;5.004;2023-03-23T12:13:54;100408.34;;;17.20;53.61
71384;BME280;67558;52.166;5.004;2023-03-23T12:16:20;100407.06;;;17.27;53.74
71384;BME280;67558;52.166;5.004;2023-03-23T12:18:53;100392.91;;;17.30;53.68
71384;BME280;67558;52.166;5.004;2023-03-23T12:21:50;100383.69;;;17.22;52.07
71384;BME280;67558;52.166;5.004;2023-03-23T12:24:35;100406.13;;;17.14;51.42
71384;BME280;67558;52.166;5.004;2023-03-23T12:27:35;100404.22;;;17.14;51.28
71384;BME280;67558;52.166;5.004;2023-03-23T12:32:54;100392.78;;;17.17;52.08
71384;BME280;67558;52.166;5.004;2023-03-23T12:35:39;100384.47;;;17.23;51.91
71384;BME280;67558;52.166;5.004;2023-03-23T12:40:59;100377.47;;;17.39;51.66
71384;BME280;67558;52.166;5.004;2023-03-23T12:44:02;100382.38;;;17.46;50.89
71384;BME280;67558;52.166;5.004;2023-03-23T12:52:08;100392.06;;;17.55;50.98
71384;BME280;67558;52.166;5.004;2023-03-23T12:54:59;100380.44;;;17.55;51.24
71384;BME280;67558;52.166;5.004;2023-03-23T12:57:42;100373.94;;;17.56;50.99
71384;BME280;67558;52.166;5.004;2023-03-23T13:00:19;100368.06;;;17.54;51.18
71384;BME280;67558;52.166;5.004;2023-03-23T13:03:06;100371.38;;;17.51;50.14
71384;BME280;67558;52.166;5.004;2023-03-23T13:05:42;100358.06;;;17.46;51.95
71384;BME280;67558;52.166;5.004;2023-03-23T13:08:19;100362.34;;;17.47;50.84
71384;BME280;67558;52.166;5.004;2023-03-23T13:10:48;100376.81;;;17.42;51.27
71384;BME280;67558;52.166;5.004;2023-03-23T13:13:41;100396.19;;;17.53;51.29
71384;BME280;67558;52.166;5.004;2023-03-23T13:21:30;100394.88;;;17.68;50.76
71384;BME280;67558;52.166;5.004;2023-03-23T13:24:10;100383.91;;;17.73;50.11
71384;BME280;67558;52.166;5.004;2023-03-23T13:26:43;100378.31;;;17.78;50.51
71384;BME280;67558;52.166;5.004;2023-03-23T13:31:36;100374.50;;;17.79;49.62
71384;BME280;67558;52.166;5.004;2023-03-23T13:34:20;100379.28;;;17.73;48.23
71384;BME280;67558;52.166;5.004;2023-03-23T13:36:59;100382.50;;;17.67;49.21
71384;BME280;67558;52.166;5.004;2023-03-23T13:39:30;100390.59;;;17.67;49.11
71384;BME280;67558;52.166;5.004;2023-03-23T13:42:23;100386.75;;;17.76;49.48
71384;BME280;67558;52.166;5.004;2023-03-23T13:47:38;100400.13;;;17.73;49.02
71384;BME280;67558;52.166;5.004;2023-03-23T13:50:24;100412.22;;;17.75;49.40
71384;BME280;67558;52.166;5.004;2023-03-23T13:53:12;100398.03;;;17.78;50.04
71384;BME280;67558;52.166;5.004;2023-03-23T13:56:22;100395.00;;;17.80;50.30
71384;BME280;67558;52.166;5.004;2023-03-23T13:58:27;100400.09;;;17.81;50.75
71384;BME280;67558;52.166;5.004;2023-03-23T14:01:14;100399.00;;;17.74;49.87
71384;BME280;67558;52.166;5.004;2023-03-23T14:03:53;100383.56;;;17.74;49.89
71384;BME280;67558;52.166;5.004;2023-03-23T14:06:22;100380.69;;;17.79;50.07
71384;BME280;67558;52.166;5.004;2023-03-23T14:08:53;100374.16;;;17.89;49.86
71384;BME280;67558;52.166;5.004;2023-03-23T14:11:31;100368.09;;;17.92;50.17
71384;BME280;67558;52.166;5.004;2023-03-23T14:14:02;100360.97;;;17.88;49.96
71384;BME280;67558;52.166;5.004;2023-03-23T14:16:40;100375.28;;;17.88;50.51
71384;BME280;67558;52.166;5.004;2023-03-23T14:19:27;100386.28;;;17.83;50.65
71384;BME280;67558;52.166;5.004;2023-03-23T14:21:56;100386.13;;;17.79;50.09
71384;BME280;67558;52.166;5.004;2023-03-23T14:24:28;100385.78;;;17.81;49.54